createdAt,value
2023-04-22T00:01:19.625Z,5.35
2023-04-22T00:03:47.109Z,5.40
2023-04-22T00:06:14.581Z,5.93
2023-04-22T00:08:41.803Z,5.93
2023-04-22T00:11:09.164Z,5.65
2023-04-22T00:13:37.199Z,5.50
2023-04-22T00:16:04.822Z,5.40
2023-04-22T00:18:35.170Z,5.15
2023-04-22T00:21:03.271Z,5.53
2023-04-22T00:23:30.592Z,5.70
2023-04-22T00:25:57.803Z,5.97
2023-04-22T00:28:24.990Z,5.50
2023-04-22T00:30:52.486Z,5.88
2023-04-22T00:33:19.891Z,5.50
2023-04-22T00:35:47.214Z,5.85
2023-04-22T00:38:14.421Z,5.63
2023-04-22T00:40:41.889Z,4.97
2023-04-22T00:43:09.097Z,5.55
2023-04-22T00:45:36.992Z,5.78
2023-04-22T00:48:04.385Z,5.13
2023-04-22T00:50:31.780Z,5.95
2023-04-22T00:52:59.030Z,5.27
2023-04-22T00:55:26.422Z,5.55
2023-04-22T00:57:54.412Z,5.13
2023-04-22T01:00:26.923Z,5.22
2023-04-22T01:02:55.118Z,6.60
2023-04-22T01:05:23.005Z,5.00
2023-04-22T01:07:51.308Z,6.00
2023-04-22T01:10:18.843Z,5.72
2023-04-22T01:12:46.379Z,5.55
2023-04-22T01:15:13.619Z,5.65
2023-04-22T01:17:41.214Z,5.47
2023-04-22T01:20:10.656Z,5.60
2023-04-22T01:22:41.692Z,4.88
2023-04-22T01:25:09.653Z,5.40
2023-04-22T01:27:36.914Z,5.55
2023-04-22T01:30:05.349Z,5.07
2023-04-22T01:32:32.993Z,5.53
2023-04-22T01:35:00.453Z,5.18
2023-04-22T01:37:28.627Z,5.40
2023-04-22T01:39:55.865Z,5.70
2023-04-22T01:42:23.154Z,5.53
2023-04-22T01:44:50.462Z,5.20
2023-04-22T01:47:17.749Z,4.78
2023-04-22T01:49:45.020Z,5.30
2023-04-22T01:52:13.079Z,5.22
2023-04-22T01:54:40.823Z,5.23
2023-04-22T01:57:14.073Z,5.43
2023-04-22T01:59:42.021Z,4.88
2023-04-22T02:02:09.576Z,5.38
2023-04-22T02:04:37.005Z,5.15
2023-04-22T02:07:04.344Z,5.60
2023-04-22T02:09:33.769Z,5.18
2023-04-22T02:12:01.577Z,4.97
2023-04-22T02:14:28.969Z,5.10
2023-04-22T02:16:56.310Z,5.40
2023-04-22T02:19:23.733Z,4.90
2023-04-22T02:21:51.356Z,5.65
2023-04-22T02:24:18.660Z,5.75
2023-04-22T02:26:47.379Z,5.78
2023-04-22T02:29:15.166Z,5.60
2023-04-22T02:31:42.474Z,5.57
2023-04-22T02:34:10.380Z,5.80
2023-04-22T02:36:37.677Z,5.45
2023-04-22T02:39:06.682Z,5.50
2023-04-22T02:41:35.818Z,6.00
2023-04-22T02:44:03.690Z,6.10
2023-04-22T02:46:31.576Z,5.70
2023-04-22T02:48:58.906Z,5.30
2023-04-22T02:51:26.802Z,5.65
2023-04-22T02:53:54.170Z,4.90
2023-04-22T02:56:21.580Z,5.70
2023-04-22T02:58:49.059Z,5.65
2023-04-22T03:01:16.376Z,5.60
2023-04-22T03:03:44.415Z,5.63
2023-04-22T03:06:17.987Z,6.28
2023-04-22T03:08:45.358Z,5.43
2023-04-22T03:11:13.899Z,5.10
2023-04-22T03:13:42.619Z,5.88
2023-04-22T03:16:10.137Z,5.45
2023-04-22T03:18:38.322Z,5.43
2023-04-22T03:21:05.628Z,5.27
2023-04-22T03:23:33.734Z,6.03
2023-04-22T03:26:01.413Z,5.72
2023-04-22T03:28:28.817Z,5.88
2023-04-22T03:30:56.221Z,5.70
2023-04-22T03:33:23.644Z,5.77
2023-04-22T03:36:04.214Z,6.70
2023-04-22T03:38:31.815Z,6.28
2023-04-22T03:40:59.265Z,5.63
2023-04-22T03:43:36.738Z,5.70
2023-04-22T03:46:08.567Z,5.40
2023-04-22T03:48:39.645Z,5.93
2023-04-22T03:51:12.184Z,6.20
2023-04-22T03:53:41.334Z,5.95
2023-04-22T03:56:11.318Z,5.82
2023-04-22T03:58:44.251Z,5.87
2023-04-22T04:01:11.963Z,6.30
2023-04-22T04:03:41.134Z,6.22
2023-04-22T04:06:10.114Z,5.28
2023-04-22T04:08:37.654Z,5.68
2023-04-22T04:11:05.088Z,5.43
2023-04-22T04:13:32.627Z,5.55
2023-04-22T04:16:19.047Z,5.47
2023-04-22T04:18:51.940Z,5.22
2023-04-22T04:21:21.513Z,5.55
2023-04-22T04:23:51.718Z,5.43
2023-04-22T04:26:24.084Z,5.57
2023-04-22T04:28:56.717Z,5.32
2023-04-22T04:31:24.938Z,6.10
2023-04-22T04:33:53.786Z,5.90
2023-04-22T04:36:21.254Z,5.50
2023-04-22T04:38:49.640Z,5.70
2023-04-22T04:41:17.136Z,5.88
2023-04-22T04:43:46.533Z,6.07
2023-04-22T04:46:37.690Z,5.60
2023-04-22T04:49:09.565Z,6.43
2023-04-22T04:51:45.776Z,5.60
2023-04-22T04:54:13.300Z,5.18
2023-04-22T04:56:41.673Z,6.13
2023-04-22T04:59:10.573Z,5.90
2023-04-22T05:01:40.083Z,5.40
2023-04-22T05:04:09.858Z,5.97
2023-04-22T05:06:40.299Z,5.95
2023-04-22T05:09:08.261Z,5.85
2023-04-22T05:11:36.637Z,5.68
2023-04-22T05:14:11.109Z,5.43
2023-04-22T05:16:41.713Z,5.97
2023-04-22T05:19:09.840Z,5.75
2023-04-22T05:21:37.388Z,5.70
2023-04-22T05:24:04.855Z,5.35
2023-04-22T05:26:32.665Z,5.13
2023-04-22T05:29:01.745Z,5.45
2023-04-22T05:31:29.289Z,4.80
2023-04-22T05:33:57.672Z,5.05
2023-04-22T05:36:28.387Z,5.50
2023-04-22T05:38:57.883Z,5.13
2023-04-22T05:41:25.200Z,6.03
2023-04-22T05:43:53.538Z,6.68
2023-04-22T05:46:21.160Z,6.95
2023-04-22T05:48:49.371Z,8.13
2023-04-22T05:51:36.889Z,7.73
2023-04-22T05:54:04.800Z,7.65
2023-04-22T05:56:32.059Z,7.38
2023-04-22T05:58:59.418Z,6.63
2023-04-22T06:01:27.271Z,6.57
2023-04-22T06:04:01.565Z,6.90
2023-04-22T06:06:30.791Z,6.50
2023-04-22T06:08:58.113Z,6.63
2023-04-22T06:11:25.561Z,6.05
2023-04-22T06:13:53.207Z,6.22
2023-04-22T06:16:20.558Z,6.30
2023-04-22T06:18:47.789Z,6.03
2023-04-22T06:21:15.677Z,6.07
2023-04-22T06:23:42.958Z,6.45
2023-04-22T06:26:10.271Z,6.22
2023-04-22T06:28:38.178Z,6.07
2023-04-22T06:31:11.054Z,5.97
2023-04-22T06:33:38.684Z,5.88
2023-04-22T06:36:06.405Z,5.78
2023-04-22T06:38:35.479Z,5.60
2023-04-22T06:41:23.117Z,5.27
2023-04-22T06:43:52.820Z,5.40
2023-04-22T06:46:39.299Z,5.47
2023-04-22T06:49:43.195Z,5.30
2023-04-22T06:52:42.573Z,5.18
2023-04-22T06:55:10.412Z,5.07
2023-04-22T06:57:38.942Z,5.05
2023-04-22T07:00:09.517Z,5.10
2023-04-22T07:02:39.509Z,4.63
2023-04-22T07:05:07.170Z,4.78
2023-04-22T07:07:34.372Z,4.70
2023-04-22T07:10:02.097Z,4.97
2023-04-22T07:12:36.528Z,5.60
2023-04-22T07:15:04.099Z,4.88
2023-04-22T07:17:31.376Z,4.85
2023-04-22T07:19:58.859Z,4.33
2023-04-22T07:22:26.160Z,4.70
2023-04-22T07:24:53.586Z,4.60
2023-04-22T07:27:20.810Z,4.30
2023-04-22T07:29:48.108Z,4.75
2023-04-22T07:32:15.522Z,4.67
2023-04-22T07:34:42.886Z,5.18
2023-04-22T07:37:10.240Z,4.82
2023-04-22T07:39:37.865Z,4.95
2023-04-22T07:42:05.642Z,4.82
2023-04-22T07:44:33.040Z,4.73
2023-04-22T07:47:00.341Z,4.68
2023-04-22T07:49:27.599Z,5.40
2023-04-22T07:51:54.843Z,4.93
2023-04-22T07:54:22.240Z,5.20
2023-04-22T07:56:49.504Z,5.50
2023-04-22T07:59:16.787Z,4.65
2023-04-22T08:01:46.166Z,4.95
2023-04-22T08:04:13.835Z,5.20
2023-04-22T08:06:41.500Z,4.60
2023-04-22T08:09:10.332Z,4.50
2023-04-22T08:11:37.574Z,4.20
2023-04-22T08:14:04.814Z,4.60
2023-04-22T08:16:32.225Z,4.30
2023-04-22T08:18:59.581Z,3.95
2023-04-22T08:21:28.439Z,3.90
2023-04-22T08:23:55.679Z,3.85
2023-04-22T08:26:23.024Z,4.22
2023-04-22T08:28:50.422Z,4.00
2023-04-22T08:31:17.829Z,4.43
2023-04-22T08:33:45.093Z,4.20
2023-04-22T08:36:12.390Z,3.90
2023-04-22T08:38:39.747Z,3.67
2023-04-22T08:41:07.431Z,3.53
2023-04-22T08:43:34.731Z,3.70
2023-04-22T08:46:02.350Z,3.33
2023-04-22T08:48:29.771Z,3.20
2023-04-22T08:50:57.011Z,2.72
2023-04-22T08:53:24.957Z,2.50
2023-04-22T08:55:52.381Z,2.17
2023-04-22T08:58:19.787Z,2.83
2023-04-22T09:00:47.333Z,2.53
2023-04-22T09:03:14.876Z,2.92
2023-04-22T09:05:42.314Z,2.70
2023-04-22T09:08:10.895Z,3.42
2023-04-22T09:10:38.677Z,3.30
2023-04-22T09:13:06.762Z,2.80
2023-04-22T09:15:34.091Z,3.35
2023-04-22T09:18:03.125Z,2.72
2023-04-22T09:20:30.610Z,3.30
2023-04-22T09:22:58.246Z,3.20
2023-04-22T09:25:26.478Z,3.20
2023-04-22T09:27:56.413Z,3.30
2023-04-22T09:30:25.565Z,3.47
2023-04-22T09:33:03.167Z,3.05
2023-04-22T09:35:37.851Z,3.00
2023-04-22T09:38:08.112Z,3.42
2023-04-22T09:40:36.248Z,3.00
2023-04-22T09:43:07.201Z,3.60
2023-04-22T09:45:42.088Z,3.17
2023-04-22T09:48:17.677Z,3.10
2023-04-22T09:50:46.475Z,3.42
2023-04-22T09:53:18.106Z,3.70
2023-04-22T09:55:50.885Z,3.83
2023-04-22T09:58:19.916Z,2.20
2023-04-22T10:00:54.721Z,3.40
2023-04-22T10:03:22.181Z,2.88
2023-04-22T10:05:49.422Z,2.55
2023-04-22T10:08:16.958Z,3.15
2023-04-22T10:10:44.419Z,2.90
2023-04-22T10:13:11.902Z,3.07
2023-04-22T10:15:43.305Z,2.90
2023-04-22T10:18:12.945Z,3.15
2023-04-22T10:20:41.642Z,3.78
2023-04-22T10:23:22.436Z,2.92
2023-04-22T10:25:53.800Z,2.73
2023-04-22T10:28:21.888Z,3.20
2023-04-22T10:30:49.180Z,2.90
2023-04-22T10:33:27.823Z,2.70
2023-04-22T10:36:11.449Z,2.70
2023-04-22T10:38:59.876Z,2.90
2023-04-22T10:41:32.552Z,2.90
2023-04-22T10:44:06.660Z,2.60
2023-04-22T10:46:45.560Z,2.78
2023-04-22T10:49:14.055Z,2.80
2023-04-22T10:51:45.899Z,2.60
2023-04-22T10:54:31.497Z,2.70
2023-04-22T10:57:03.491Z,3.00
2023-04-22T10:59:33.683Z,2.97
2023-04-22T11:02:11.565Z,2.67
2023-04-22T11:04:39.971Z,2.80
2023-04-22T11:07:30.928Z,2.50
2023-04-22T11:10:04.293Z,2.58
2023-04-22T11:12:42.110Z,2.35
2023-04-22T11:15:13.815Z,3.20
2023-04-22T11:17:48.224Z,2.77
2023-04-22T11:20:18.536Z,2.95
2023-04-22T11:22:55.096Z,3.10
2023-04-22T11:25:23.178Z,2.88
2023-04-22T11:27:50.486Z,2.80
2023-04-22T11:30:19.237Z,3.10
2023-04-22T11:32:47.102Z,3.03
2023-04-22T11:35:18.624Z,3.40
2023-04-22T11:37:50.597Z,2.88
2023-04-22T11:40:30.870Z,2.53
2023-04-22T11:43:00.971Z,2.70
2023-04-22T11:45:29.261Z,2.90
2023-04-22T11:47:56.814Z,2.80
2023-04-22T11:50:28.183Z,2.58
2023-04-22T11:52:57.513Z,2.60
2023-04-22T11:55:32.294Z,2.80
2023-04-22T11:58:07.260Z,2.80
2023-04-22T12:00:35.200Z,3.13
2023-04-22T12:03:04.187Z,2.67
2023-04-22T12:05:41.783Z,2.75
2023-04-22T12:08:12.639Z,2.70
2023-04-22T12:10:47.726Z,2.78
2023-04-22T12:13:25.737Z,2.60
2023-04-22T12:15:54.446Z,2.47
2023-04-22T12:18:35.912Z,2.78
2023-04-22T12:21:10.069Z,2.70
2023-04-22T12:23:48.570Z,2.60
2023-04-22T12:26:16.630Z,2.80
2023-04-22T12:28:44.120Z,3.10
2023-04-22T12:31:11.619Z,2.83
2023-04-22T12:33:39.356Z,2.60
2023-04-22T12:36:06.842Z,2.63
2023-04-22T12:38:34.408Z,3.00
2023-04-22T12:41:02.321Z,2.80
2023-04-22T12:43:29.566Z,2.60
2023-04-22T12:45:56.866Z,2.60
2023-04-22T12:48:24.186Z,3.03
2023-04-22T12:50:51.486Z,2.58
2023-04-22T12:53:18.722Z,2.55
2023-04-22T12:55:46.404Z,2.50
2023-04-22T12:58:13.733Z,2.83
2023-04-22T13:00:41.148Z,2.83
2023-04-22T13:03:08.464Z,2.95
2023-04-22T13:05:36.056Z,2.50
2023-04-22T13:08:07.035Z,2.60
2023-04-22T13:10:35.492Z,2.73
2023-04-22T13:13:17.730Z,3.00
2023-04-22T13:15:54.089Z,2.72
2023-04-22T13:18:22.825Z,2.83
2023-04-22T13:20:50.063Z,2.58
2023-04-22T13:23:17.866Z,2.87
2023-04-22T13:25:45.376Z,2.58
2023-04-22T13:28:12.755Z,2.63
2023-04-22T13:30:40.295Z,2.47
2023-04-22T13:33:07.644Z,2.60
2023-04-22T13:35:35.337Z,2.57
2023-04-22T13:38:02.902Z,2.85
2023-04-22T13:40:30.141Z,2.50
2023-04-22T13:42:57.632Z,2.80
2023-04-22T13:45:26.248Z,2.85
2023-04-22T13:47:54.052Z,2.70
2023-04-22T13:50:21.374Z,2.35
2023-04-22T13:52:48.733Z,2.70
2023-04-22T13:55:16.140Z,2.70
2023-04-22T13:57:43.428Z,2.65
2023-04-22T14:00:11.333Z,2.70
2023-04-22T14:02:41.942Z,2.95
2023-04-22T14:05:10.659Z,2.90
2023-04-22T14:07:37.901Z,2.60
2023-04-22T14:10:08.379Z,2.97
2023-04-22T14:12:35.745Z,2.17
2023-04-22T14:15:03.231Z,2.97
2023-04-22T14:17:30.605Z,2.80
2023-04-22T14:19:58.149Z,2.33
2023-04-22T14:22:25.493Z,2.58
2023-04-22T14:24:52.788Z,2.70
2023-04-22T14:27:20.083Z,2.72
2023-04-22T14:29:47.360Z,2.47
2023-04-22T14:32:15.366Z,2.90
2023-04-22T14:34:44.011Z,2.55
2023-04-22T14:37:11.893Z,2.17
2023-04-22T14:39:39.270Z,2.50
2023-04-22T14:42:06.586Z,3.50
2023-04-22T14:44:33.873Z,2.47
2023-04-22T14:47:01.312Z,2.47
2023-04-22T14:49:28.508Z,2.80
2023-04-22T14:51:55.750Z,2.67
2023-04-22T14:54:23.179Z,2.72
2023-04-22T14:56:52.133Z,2.80
2023-04-22T14:59:19.311Z,2.80
2023-04-22T15:01:46.647Z,2.90
2023-04-22T15:04:15.118Z,2.40
2023-04-22T15:06:42.780Z,3.13
2023-04-22T15:09:11.125Z,2.88
2023-04-22T15:11:38.403Z,2.80
2023-04-22T15:14:05.686Z,2.43
2023-04-22T15:16:33.152Z,3.75
2023-04-22T15:19:00.464Z,3.15
2023-04-22T15:21:28.106Z,2.95
2023-04-22T15:23:55.525Z,2.70
2023-04-22T15:26:22.911Z,2.93
2023-04-22T15:28:51.080Z,3.00
2023-04-22T15:31:20.756Z,3.00
2023-04-22T15:33:48.161Z,2.60
2023-04-22T15:36:18.244Z,3.22
2023-04-22T15:38:47.242Z,2.80
2023-04-22T15:41:14.460Z,2.97
2023-04-22T15:43:41.752Z,2.60
2023-04-22T15:46:08.959Z,3.22
2023-04-22T15:48:36.378Z,3.58
2023-04-22T15:51:03.891Z,2.50
2023-04-22T15:53:31.139Z,2.88
2023-04-22T15:55:58.594Z,2.60
2023-04-22T15:58:25.959Z,2.80
2023-04-22T16:00:53.238Z,2.65
2023-04-22T16:03:21.095Z,2.70
2023-04-22T16:05:48.392Z,2.78
2023-04-22T16:08:16.286Z,2.92
2023-04-22T16:10:43.531Z,3.22
2023-04-22T16:13:10.766Z,2.97
2023-04-22T16:15:38.185Z,3.40
2023-04-22T16:18:05.632Z,2.70
2023-04-22T16:20:32.921Z,3.00
2023-04-22T16:23:00.272Z,2.53
2023-04-22T16:25:28.196Z,3.35
2023-04-22T16:27:56.077Z,2.90
2023-04-22T16:30:23.378Z,3.10
2023-04-22T16:32:50.714Z,2.75
2023-04-22T16:35:18.143Z,2.85
2023-04-22T16:37:46.595Z,2.65
2023-04-22T16:40:13.805Z,3.10
2023-04-22T16:42:41.127Z,2.80
2023-04-22T16:45:08.721Z,3.10
2023-04-22T16:47:36.133Z,2.47
2023-04-22T16:50:03.859Z,2.65
2023-04-22T16:52:31.341Z,3.20
2023-04-22T16:54:58.924Z,2.92
2023-04-22T16:57:29.486Z,3.10
2023-04-22T16:59:56.720Z,3.08
2023-04-22T17:02:24.023Z,3.40
2023-04-22T17:04:51.579Z,2.90
2023-04-22T17:07:18.926Z,2.95
2023-04-22T17:09:46.389Z,3.00
2023-04-22T17:12:13.638Z,3.70
2023-04-22T17:14:41.060Z,4.45
2023-04-22T17:17:08.271Z,4.10
2023-04-22T17:19:36.477Z,3.40
2023-04-22T17:22:04.118Z,3.53
2023-04-22T17:24:31.470Z,3.50
2023-04-22T17:26:58.727Z,3.20
2023-04-22T17:29:26.225Z,3.77
2023-04-22T17:31:53.644Z,4.03
2023-04-22T17:34:21.144Z,4.63
2023-04-22T17:36:48.342Z,4.57
2023-04-22T17:39:15.606Z,3.47
2023-04-22T17:41:43.130Z,4.30
2023-04-22T17:44:11.281Z,3.92
2023-04-22T17:46:38.543Z,3.63
2023-04-22T17:49:05.865Z,3.90
2023-04-22T17:51:33.408Z,4.00
2023-04-22T17:54:01.678Z,3.63
2023-04-22T17:56:28.975Z,3.60
2023-04-22T17:58:56.377Z,3.50
2023-04-22T18:01:23.834Z,3.70
2023-04-22T18:03:51.555Z,4.32
2023-04-22T18:06:18.968Z,4.20
2023-04-22T18:08:46.435Z,3.90
2023-04-22T18:11:13.739Z,4.45
2023-04-22T18:13:41.131Z,4.90
2023-04-22T18:16:08.347Z,5.00
2023-04-22T18:18:35.954Z,5.37
2023-04-22T18:21:03.316Z,5.50
2023-04-22T18:23:30.567Z,5.40
2023-04-22T18:25:57.921Z,4.97
2023-04-22T18:28:25.604Z,5.55
2023-04-22T18:30:52.798Z,5.90
2023-04-22T18:33:20.052Z,6.55
2023-04-22T18:35:47.293Z,6.07
2023-04-22T18:38:14.805Z,5.50
2023-04-22T18:40:42.529Z,5.10
2023-04-22T18:43:09.879Z,5.17
2023-04-22T18:45:37.142Z,4.50
2023-04-22T18:48:04.667Z,4.75
2023-04-22T18:50:31.996Z,4.53
2023-04-22T18:52:59.280Z,4.38
2023-04-22T18:55:26.487Z,5.57
2023-04-22T18:57:53.837Z,5.22
2023-04-22T19:00:21.581Z,5.50
2023-04-22T19:02:48.956Z,5.35
2023-04-22T19:05:18.028Z,4.95
2023-04-22T19:07:45.450Z,4.80
2023-04-22T19:10:12.835Z,5.72
2023-04-22T19:12:40.250Z,4.70
2023-04-22T19:15:07.971Z,4.70
2023-04-22T19:17:35.578Z,4.97
2023-04-22T19:20:02.776Z,4.23
2023-04-22T19:22:30.071Z,5.13
2023-04-22T19:25:00.074Z,6.30
2023-04-22T19:27:27.625Z,9.35
2023-04-22T19:29:54.939Z,8.98
2023-04-22T19:32:22.356Z,7.63
2023-04-22T19:34:50.166Z,7.07
2023-04-22T19:37:17.631Z,6.45
2023-04-22T19:39:44.942Z,6.18
2023-04-22T19:42:12.351Z,5.88
2023-04-22T19:44:42.934Z,5.37
2023-04-22T19:47:10.538Z,6.15
2023-04-22T19:49:39.222Z,5.75
2023-04-22T19:52:09.561Z,5.63
2023-04-22T19:54:36.917Z,5.85
2023-04-22T19:57:06.608Z,5.67
2023-04-22T19:59:34.134Z,6.50
2023-04-22T20:02:01.766Z,6.70
2023-04-22T20:04:29.430Z,7.75
2023-04-22T20:06:57.710Z,6.75
2023-04-22T20:09:25.119Z,7.17
2023-04-22T20:11:53.684Z,6.88
2023-04-22T20:14:22.102Z,7.63
2023-04-22T20:16:50.089Z,7.25
2023-04-22T20:19:17.996Z,7.80
2023-04-22T20:21:47.623Z,6.90
2023-04-22T20:24:19.468Z,7.22
2023-04-22T20:26:49.911Z,6.85
2023-04-22T20:29:19.920Z,7.25
2023-04-22T20:31:47.526Z,8.10
2023-04-22T20:34:14.891Z,8.87
2023-04-22T20:36:42.146Z,8.90
2023-04-22T20:39:09.442Z,8.35
2023-04-22T20:41:39.337Z,8.80
2023-04-22T20:44:07.093Z,9.07
2023-04-22T20:46:35.119Z,7.90
2023-04-22T20:49:02.498Z,7.75
2023-04-22T20:51:29.843Z,8.65
2023-04-22T20:53:57.517Z,8.13
2023-04-22T20:56:25.488Z,7.20
2023-04-22T20:58:52.836Z,6.23
2023-04-22T21:01:20.133Z,6.40
2023-04-22T21:03:51.435Z,6.40
2023-04-22T21:06:19.439Z,7.32
2023-04-22T21:08:47.697Z,7.68
2023-04-22T21:11:15.209Z,7.80
2023-04-22T21:13:45.902Z,8.32
2023-04-22T21:16:13.448Z,7.57
2023-04-22T21:18:43.266Z,7.43
2023-04-22T21:21:10.767Z,7.60
2023-04-22T21:23:40.196Z,8.20
2023-04-22T21:26:07.555Z,7.65
2023-04-22T21:28:35.192Z,8.00
2023-04-22T21:31:02.878Z,7.32
2023-04-22T21:33:31.947Z,7.65
2023-04-22T21:35:59.283Z,7.97
2023-04-22T21:38:26.476Z,7.78
2023-04-22T21:40:53.746Z,9.20
2023-04-22T21:43:20.929Z,8.60
2023-04-22T21:45:48.290Z,8.63
2023-04-22T21:48:15.746Z,8.80
2023-04-22T21:50:43.005Z,8.07
2023-04-22T21:53:11.180Z,9.05
2023-04-22T21:55:38.986Z,8.20
2023-04-22T21:58:06.275Z,8.63
2023-04-22T22:00:33.468Z,7.93
2023-04-22T22:03:01.413Z,8.20
2023-04-22T22:05:28.872Z,8.55
2023-04-22T22:07:56.077Z,8.30
2023-04-22T22:10:23.760Z,9.00
2023-04-22T22:12:51.384Z,7.80
2023-04-22T22:15:18.839Z,7.78
2023-04-22T22:17:46.192Z,6.93
2023-04-22T22:20:16.718Z,7.03
2023-04-22T22:22:44.288Z,8.10
2023-04-22T22:25:12.992Z,8.23
2023-04-22T22:27:49.873Z,8.38
2023-04-22T22:30:18.672Z,7.45
2023-04-22T22:32:46.271Z,6.93
2023-04-22T22:35:13.762Z,7.05
2023-04-22T22:37:41.253Z,7.33
2023-04-22T22:40:09.144Z,7.72
2023-04-22T22:42:36.451Z,7.55
2023-04-22T22:45:05.289Z,7.68
2023-04-22T22:47:32.766Z,7.38
2023-04-22T22:50:00.607Z,6.97
2023-04-22T22:52:27.875Z,7.70
2023-04-22T22:54:55.355Z,7.38
2023-04-22T22:57:22.539Z,7.80
2023-04-22T22:59:49.914Z,7.72
2023-04-22T23:02:17.471Z,7.30
2023-04-22T23:04:45.553Z,6.50
2023-04-22T23:07:14.730Z,7.15
2023-04-22T23:09:42.670Z,8.02
2023-04-22T23:12:09.904Z,7.20
2023-04-22T23:14:37.152Z,6.53
2023-04-22T23:17:04.492Z,7.50
2023-04-22T23:19:32.038Z,5.97
2023-04-22T23:21:59.239Z,5.80
2023-04-22T23:24:26.726Z,5.82
2023-04-22T23:26:54.242Z,5.73
2023-04-22T23:29:22.007Z,5.90
2023-04-22T23:31:49.225Z,6.10
2023-04-22T23:34:16.487Z,5.55
2023-04-22T23:36:43.672Z,5.38
2023-04-22T23:39:11.001Z,5.30
2023-04-22T23:41:38.206Z,5.50
2023-04-22T23:44:06.650Z,5.53
2023-04-22T23:46:33.940Z,6.55
2023-04-22T23:49:01.960Z,6.35
2023-04-22T23:51:29.895Z,6.43
2023-04-22T23:53:57.203Z,6.32
2023-04-22T23:56:24.715Z,6.50
2023-04-22T23:58:52.292Z,5.70
